| time (UTC) | temp C | wind direction | speed KPH | gust KPH | rain 1hr cm | rain 24hr cm | rain mn cm | humidity % | barometer mb |
| 20260906051553 | 22 | 337 | 0.0 | 0.0 | 0.00 | 0.61 | 0.03 | 68 | 1011.1 |
| 20260906050109 | 22 | 337 | 0.0 | 1.6 | 0.00 | 0.61 | 0.03 | 68 | 1011.3 |
| 20260906044554 | 22 | 338 | 0.0 | 4.8 | 0.00 | 0.61 | 0.03 | 68 | 1011.3 |
| 20260906043051 | 22 | 219 | 0.0 | 0.0 | 0.00 | 0.61 | 0.03 | 68 | 1011.3 |
| 20260906041551 | 22 | 213 | 0.0 | 0.0 | 0.00 | 0.61 | 0.03 | 68 | 1011.4 |
| 20260906040107 | 22 | 213 | 0.0 | 0.0 | 0.00 | 0.61 | 0.03 | 68 | 1011.6 |
| 20260906034601 | 22 | 213 | 0.0 | 0.0 | 0.00 | 0.61 | 0.03 | 68 | 1011.9 |
| 20260906033050 | 22 | 213 | 0.0 | 0.0 | 0.00 | 0.61 | 0.03 | 67 | 1011.7 |
| 20260906031553 | 22 | 213 | 0.0 | 0.0 | 0.00 | 0.61 | 0.03 | 67 | 1011.8 |
| 20260906030052 | 22 | 213 | 0.0 | 0.0 | 0.00 | 0.61 | 0.03 | 67 | 1011.8 |
| 20260906024547 | 22 | 213 | 0.0 | 0.0 | 0.00 | 0.61 | 0.03 | 66 | 1011.9 |
| 20260906023050 | 22 | 213 | 0.0 | 0.0 | 0.00 | 0.61 | 0.03 | 66 | 1011.5 |
| 20260906021600 | 22 | 213 | 0.0 | 0.0 | 0.00 | 0.61 | 0.03 | 65 | 1011.1 |
| 20260906020055 | 22 | 213 | 0.0 | 0.0 | 0.00 | 0.61 | 0.03 | 64 | 1011.0 |
| 20260906014555 | 22 | 213 | 0.0 | 0.0 | 0.00 | 0.61 | 0.03 | 63 | 1011.1 |
| 20260906013045 | 22 | 213 | 0.0 | 0.0 | 0.00 | 0.61 | 0.03 | 62 | 1010.9 |
| 20260906011547 | 22 | 213 | 0.0 | 0.0 | 0.00 | 0.61 | 0.03 | 61 | 1010.9 |
| 20260906010045 | 22 | 213 | 0.0 | 0.0 | 0.00 | 0.61 | 0.03 | 59 | 1010.9 |
| 20260906004545 | 23 | 214 | 0.0 | 0.0 | 0.00 | 0.61 | 0.03 | 59 | 1010.9 |
| 20260906003046 | 23 | 214 | 0.0 | 0.0 | 0.03 | 0.61 | 0.03 | 59 | 1010.7 |
| 20260906001544 | 23 | 214 | 0.0 | 0.0 | 0.03 | 0.61 | 0.03 | 59 | 1010.5 |
| 20260906000044 | 23 | 213 | 0.0 | 0.0 | 0.03 | 0.61 | 0.03 | 60 | 1010.4 |
| 20260905234542 | 24 | 213 | 0.0 | 1.6 | 0.03 | 0.61 | 0.03 | 61 | 1010.2 |
| 20260905233044 | 25 | 14 | 0.0 | 0.0 | 0.03 | 0.61 | 0.03 | 62 | 1010.1 |
| 20260905231543 | 25 | 296 | 0.0 | 0.0 | 0.00 | 0.58 | 0.00 | 62 | 1009.9 |
| 20260905230050 | 26 | 296 | 0.0 | 4.8 | 0.00 | 0.58 | 0.00 | 59 | 1009.8 |
| 20260905224546 | 26 | 318 | 3.2 | 6.4 | 0.00 | 0.58 | 0.00 | 58 | 1009.8 |
| 20260905223044 | 26 | 330 | 1.6 | 6.4 | 0.00 | 0.58 | 0.00 | 58 | 1009.6 |
| 20260905221546 | 25 | 340 | 0.0 | 3.2 | 0.00 | 0.58 | 0.00 | 57 | 1009.8 |
| 20260905220035 | 25 | 300 | 0.0 | 4.8 | 0.00 | 0.58 | 0.00 | 58 | 1009.7 |
| 20260905214534 | 25 | 331 | 3.2 | 6.4 | 0.00 | 0.58 | 0.00 | 57 | 1009.9 |
| 20260905213034 | 23 | 304 | 3.2 | 9.7 | 0.00 | 0.58 | 0.00 | 57 | 1010.1 |
| 20260905211540 | 23 | 320 | 3.2 | 8.0 | 0.00 | 0.58 | 0.00 | 57 | 1010.3 |
| 20260905210025 | 22 | 310 | 3.2 | 8.0 | 0.00 | 0.58 | 0.00 | 66 | 1010.5 |
| 20260905204523 | 22 | 321 | 3.2 | 6.4 | 0.00 | 0.58 | 0.00 | 65 | 1011.3 |
| 20260905203028 | 21 | 350 | 3.2 | 6.4 | 0.00 | 0.58 | 0.00 | 65 | 1011.0 |
| 20260905201521 | 21 | 89 | 0.0 | 4.8 | 0.15 | 0.58 | 0.00 | 59 | 1011.0 |
| 20260905200021 | 21 | 17 | 1.6 | 6.4 | 0.58 | 0.58 | 0.00 | 58 | 1011.3 |
| 20260905194519 | 21 | 113 | 0.0 | 4.8 | 0.58 | 0.58 | 0.00 | 58 | 1010.4 |
| 20260905193016 | 21 | 225 | 4.8 | 8.0 | 0.58 | 0.58 | 0.00 | 59 | 1011.0 |
| 20260905191513 | 22 | 146 | 1.6 | 25.7 | 0.56 | 0.56 | 0.56 | 61 | 1011.0 |
| 20260905190010 | 27 | 325 | 27.4 | 40.2 | 0.03 | 0.03 | 0.03 | 46 | 1012.7 |
| 20260905184509 | 32 | 329 | 16.1 | 35.4 | 0.00 | 0.00 | 0.00 | 34 | 1010.7 |
| 20260905183009 | 34 | 256 | 0.0 | 8.0 | 0.00 | 0.00 | 0.00 | 38 | 1010.2 |
| 20260905181507 | 34 | 302 | 1.6 | 6.4 | 0.00 | 0.00 | 0.00 | 39 | 1010.1 |
| 20260905180006 | 34 | 46 | 3.2 | 8.0 | 0.00 | 0.00 | 0.00 | 38 | 1010.4 |
| 20260905174504 | 34 | 26 | 3.2 | 8.0 | 0.00 | 0.00 | 0.00 | 38 | 1011.0 |
| 20260905173000 | 34 | 286 | 4.8 | 6.4 | 0.00 | 0.00 | 0.00 | 39 | 1011.3 |
| 20260905171606 | 33 | 60 | 3.2 | 9.7 | 0.00 | 0.00 | 0.00 | 38 | 1011.6 |
| 20260905170100 | 33 | 355 | 3.2 | 8.0 | 0.00 | 0.00 | 0.00 | 42 | 1011.8 |
| 20260905170002 | 33 | 344 | 3.2 | 8.0 | 0.00 | 0.00 | 0.00 | 41 | 1011.8 |
| 20260905164600 | 33 | 296 | 1.6 | 8.0 | 0.00 | 0.00 | 0.00 | 43 | 1012.0 |
| 20260905163058 | 33 | 58 | 3.2 | 8.0 | 0.00 | 0.00 | 0.00 | 43 | 1012.2 |
| 20260905161601 | 33 | 327 | 3.2 | 6.4 | 0.00 | 0.00 | 0.00 | 43 | 1012.4 |
| 20260905160057 | 32 | 355 | 3.2 | 9.7 | 0.00 | 0.00 | 0.00 | 45 | 1012.6 |
| 20260905154559 | 32 | 17 | 1.6 | 8.0 | 0.00 | 0.00 | 0.00 | 47 | 1012.6 |
| 20260905153057 | 31 | 342 | 1.6 | 6.4 | 0.00 | 0.00 | 0.00 | 49 | 1012.5 |
| 20260905151557 | 30 | 322 | 4.8 | 9.7 | 0.00 | 0.00 | 0.00 | 52 | 1012.6 |
| 20260905150057 | 30 | 314 | 1.6 | 8.0 | 0.00 | 0.00 | 0.00 | 53 | 1012.8 |
| 20260905144558 | 29 | 312 | 1.6 | 8.0 | 0.00 | 0.00 | 0.00 | 56 | 1012.7 |
| 20260905143056 | 29 | 294 | 1.6 | 8.0 | 0.00 | 0.00 | 0.00 | 56 | 1012.7 |
| 20260905141556 | 29 | 240 | 1.6 | 6.4 | 0.00 | 0.00 | 0.00 | 56 | 1012.8 |
| 20260905140054 | 28 | 223 | 1.6 | 4.8 | 0.00 | 0.00 | 0.00 | 56 | 1012.8 |
| 20260905134558 | 27 | 294 | 0.0 | 4.8 | 0.00 | 0.00 | 0.00 | 55 | 1012.8 |
| 20260905133055 | 26 | 320 | 4.8 | 6.4 | 0.00 | 0.00 | 0.00 | 55 | 1013.1 |
| 20260905131556 | 26 | 300 | 1.6 | 4.8 | 0.00 | 0.00 | 0.00 | 55 | 1013.1 |
| 20260905130055 | 26 | 159 | 1.6 | 6.4 | 0.00 | 0.00 | 0.00 | 55 | 1013.1 |
| 20260905124554 | 26 | 178 | 1.6 | 4.8 | 0.00 | 0.00 | 0.00 | 55 | 1013.2 |
| 20260905123054 | 25 | 194 | 0.0 | 3.2 | 0.00 | 0.00 | 0.00 | 54 | 1013.1 |
| 20260905121554 | 24 | 229 | 0.0 | 0.0 | 0.00 | 0.00 | 0.00 | 58 | 1013.0 |
| 20260905120055 | 23 | 229 | 0.0 | 1.6 | 0.00 | 0.00 | 0.00 | 59 | 1012.7 |
| 20260905114608 | 22 | 155 | 0.0 | 0.0 | 0.00 | 0.00 | 0.00 | 60 | 1012.7 |
| 20260905113052 | 22 | 155 | 0.0 | 0.0 | 0.00 | 0.00 | 0.00 | 59 | 1012.4 |
| 20260905111606 | 22 | 155 | 0.0 | 0.0 | 0.00 | 0.00 | 0.00 | 58 | 1012.3 |
| 20260905110055 | 22 | 155 | 0.0 | 0.0 | 0.00 | 0.00 | 0.00 | 58 | 1011.8 |
| 20260905104552 | 22 | 155 | 0.0 | 0.0 | 0.00 | 0.00 | 0.00 | 58 | 1011.7 |
| 20260905103051 | 22 | 155 | 0.0 | 0.0 | 0.00 | 0.00 | 0.00 | 58 | 1011.5 |
| 20260905101550 | 23 | 155 | 0.0 | 0.0 | 0.00 | 0.00 | 0.00 | 58 | 1011.4 |
| 20260905100050 | 23 | 155 | 0.0 | 0.0 | 0.00 | 0.00 | 0.00 | 58 | 1011.4 |
| 20260905094600 | 23 | 155 | 0.0 | 0.0 | 0.00 | 0.00 | 0.00 | 58 | 1011.4 |
| 20260905093048 | 23 | 155 | 0.0 | 0.0 | 0.00 | 0.00 | 0.00 | 58 | 1011.6 |
| 20260905091549 | 23 | 155 | 0.0 | 0.0 | 0.00 | 0.00 | 0.00 | 58 | 1011.3 |
| 20260905090044 | 23 | 155 | 0.0 | 0.0 | 0.00 | 0.00 | 0.00 | 58 | 1011.4 |
| 20260905084546 | 23 | 155 | 0.0 | 0.0 | 0.00 | 0.00 | 0.00 | 58 | 1011.6 |
| 20260905083043 | 23 | 155 | 0.0 | 0.0 | 0.00 | 0.00 | 0.00 | 58 | 1011.7 |
| 20260905081544 | 23 | 155 | 0.0 | 0.0 | 0.00 | 0.00 | 0.00 | 57 | 1011.8 |
| 20260905080052 | 23 | 155 | 0.0 | 0.0 | 0.00 | 0.00 | 0.00 | 58 | 1011.9 |
| 20260905074540 | 23 | 155 | 0.0 | 0.0 | 0.00 | 0.00 | 0.00 | 58 | 1012.1 |
| 20260905073045 | 23 | 155 | 0.0 | 0.0 | 0.00 | 0.00 | 0.00 | 58 | 1012.1 |
| 20260905071541 | 23 | 155 | 0.0 | 0.0 | 0.00 | 0.00 | 0.00 | 59 | 1012.2 |
| 20260905070045 | 24 | 155 | 0.0 | 0.0 | 0.00 | 0.00 | 0.00 | 59 | 1012.5 |
| 20260905064538 | 24 | 155 | 0.0 | 0.0 | 0.00 | 0.00 | 0.00 | 60 | 1012.6 |
| 20260905063036 | 25 | 155 | 0.0 | 0.0 | 0.00 | 0.00 | 0.00 | 61 | 1012.9 |
| 20260905061550 | 25 | 155 | 0.0 | 0.0 | 0.00 | 0.00 | 0.00 | 62 | 1013.0 |
| 20260905060030 | 25 | 155 | 0.0 | 0.0 | 0.00 | 0.00 | 0.00 | 62 | 1012.9 |
| 20260905054529 | 25 | 155 | 0.0 | 0.0 | 0.00 | 0.00 | 0.00 | 62 | 1013.2 |
| 20260905053028 | 25 | 155 | 0.0 | 0.0 | 0.00 | 0.00 | 0.00 | 62 | 1013.2 |